Time;durP1;ratioP1;P1;durP2;ratioP2;P2;SDS_P1;SDS_P2;PMS_P1;PMS_P2;Temp;Humidity;BMP_temperature;BMP_pressure;BME280_temperature;BME280_humidity;BME280_pressure;Samples;Min_cycle;Max_cycle;Signal;HPM_P1;HPM_P2
2022/05/05 00:01:41;;;;;;;18.70;6.65;;;8.70;99.90;;;;;;4972814;28;20101;-81
2022/05/05 00:04:08;;;;;;;11.45;5.65;;;8.70;99.90;;;;;;4971727;28;20062;-82
2022/05/05 00:06:34;;;;;;;13.90;5.53;;;8.70;99.90;;;;;;4972936;28;20061;-80
2022/05/05 00:09:00;;;;;;;12.20;6.60;;;8.70;99.90;;;;;;4971736;28;20055;-81
2022/05/05 00:14:23;;;;;;;12.32;6.88;;;8.70;99.90;;;;;;4971617;28;20051;-80
2022/05/05 00:16:55;;;;;;;12.73;6.07;;;8.80;99.90;;;;;;4971253;28;20061;-80
2022/05/05 00:19:20;;;;;;;12.18;6.35;;;8.70;99.90;;;;;;4972912;28;20140;-81
2022/05/05 00:21:46;;;;;;;13.10;6.18;;;8.70;99.90;;;;;;4971342;28;20369;-81
2022/05/05 00:24:12;;;;;;;11.90;5.60;;;8.70;99.90;;;;;;4972719;28;20051;-80
2022/05/05 00:26:38;;;;;;;11.43;6.90;;;8.70;99.90;;;;;;4957034;28;20138;-81
2022/05/05 00:29:05;;;;;;;17.10;7.25;;;8.70;99.90;;;;;;4974482;28;20149;-81
2022/05/05 00:31:30;;;;;;;13.77;7.70;;;8.60;99.90;;;;;;4972127;28;20118;-81
2022/05/05 00:33:56;;;;;;;14.48;6.90;;;8.60;99.90;;;;;;4972693;28;20134;-79
2022/05/05 00:36:22;;;;;;;15.35;8.02;;;8.60;99.90;;;;;;4971058;28;20078;-81
2022/05/05 00:38:48;;;;;;;15.00;7.80;;;8.60;99.90;;;;;;4972529;28;20480;-82
2022/05/05 00:41:14;;;;;;;15.90;7.78;;;8.60;99.90;;;;;;4971558;28;20094;-82
2022/05/05 00:43:40;;;;;;;19.17;7.93;;;8.50;99.90;;;;;;4971112;28;20101;-82
2022/05/05 00:46:05;;;;;;;14.00;7.32;;;8.40;99.90;;;;;;4972707;28;20039;-81
2022/05/05 00:48:31;;;;;;;14.15;7.13;;;8.40;99.90;;;;;;4971188;28;20082;-81
2022/05/05 00:50:58;;;;;;;15.70;6.78;;;8.40;99.90;;;;;;4972536;28;20050;-82
2022/05/05 00:53:24;;;;;;;14.32;7.28;;;8.40;99.90;;;;;;4976198;28;20089;-81
2022/05/05 00:55:56;;;;;;;13.18;6.68;;;8.40;99.90;;;;;;4971403;28;20126;-80
2022/05/05 00:58:27;;;;;;;16.58;7.18;;;8.40;99.90;;;;;;4972468;28;20564;-81
2022/05/05 01:00:54;;;;;;;15.77;7.40;;;8.40;99.90;;;;;;4971936;28;20482;-81
2022/05/05 01:03:21;;;;;;;14.93;6.90;;;8.40;99.90;;;;;;4972366;28;20121;-81
2022/05/05 01:05:47;;;;;;;15.55;7.20;;;8.40;99.90;;;;;;4972011;28;20061;-80
2022/05/05 01:08:13;;;;;;;12.20;6.97;;;8.40;99.90;;;;;;4970500;28;20062;-80
2022/05/05 01:10:39;;;;;;;12.35;7.20;;;8.40;99.90;;;;;;4971233;28;20070;-81
2022/05/05 01:13:05;;;;;;;13.52;7.75;;;8.40;99.90;;;;;;4973307;28;20110;-80
2022/05/05 01:15:33;;;;;;;15.88;7.47;;;8.40;99.90;;;;;;4973688;28;20399;-81
2022/05/05 01:17:59;;;;;;;18.75;7.88;;;8.40;99.90;;;;;;4973041;28;20055;-81
2022/05/05 01:20:25;;;;;;;10.30;5.60;;;8.40;99.90;;;;;;4972219;28;20054;-80
2022/05/05 01:22:51;;;;;;;18.83;7.45;;;8.40;99.90;;;;;;4970766;28;20189;-81
2022/05/05 01:28:11;;;;;;;14.20;6.75;;;8.40;99.90;;;;;;4972063;28;20411;-81
2022/05/05 01:30:45;;;;;;;12.90;6.50;;;8.40;99.90;;;;;;4971561;28;20120;-81
2022/05/05 01:33:18;;;;;;;13.55;6.70;;;8.50;99.90;;;;;;4972137;28;20054;-81
2022/05/05 01:35:46;;;;;;;16.20;6.60;;;8.40;99.90;;;;;;4970492;28;20058;-82
2022/05/05 01:38:14;;;;;;;14.45;7.00;;;8.50;99.90;;;;;;4970481;28;20529;-80
2022/05/05 01:40:40;;;;;;;15.02;6.93;;;8.50;99.90;;;;;;4972176;28;20407;-82
2022/05/05 01:43:09;;;;;;;14.40;7.22;;;8.50;99.90;;;;;;4974291;28;20522;-82
2022/05/05 01:45:36;;;;;;;15.60;7.10;;;8.50;99.90;;;;;;4970920;28;20133;-81
2022/05/05 01:48:02;;;;;;;16.77;7.22;;;8.50;99.90;;;;;;4970385;28;20070;-82
2022/05/05 01:50:31;;;;;;;14.88;7.35;;;8.50;99.90;;;;;;4971689;28;20058;-81
2022/05/05 01:52:58;;;;;;;16.27;6.82;;;8.50;99.90;;;;;;4970185;28;20061;-83
2022/05/05 01:55:23;;;;;;;14.18;6.50;;;8.50;99.90;;;;;;4970035;28;20323;-81
2022/05/05 01:57:50;;;;;;;19.25;7.50;;;8.50;99.90;;;;;;4970302;28;20527;-82
2022/05/05 02:00:17;;;;;;;16.98;8.68;;;8.50;99.90;;;;;;4970305;28;20097;-79
2022/05/05 02:02:44;;;;;;;16.33;8.48;;;8.50;99.90;;;;;;4973149;28;20153;-82
2022/05/05 02:05:11;;;;;;;14.60;8.07;;;8.50;99.90;;;;;;4973088;28;20062;-80
2022/05/05 02:07:41;;;;;;;14.98;6.72;;;8.50;99.90;;;;;;4970527;28;20515;-82
2022/05/05 02:10:09;;;;;;;14.30;7.93;;;8.60;99.90;;;;;;4971428;28;20063;-80
2022/05/05 02:12:36;;;;;;;16.75;7.75;;;8.60;99.90;;;;;;4970003;28;20406;-81
2022/05/05 02:15:06;;;;;;;19.50;7.75;;;8.60;99.90;;;;;;4970344;28;20150;-81
2022/05/05 02:17:37;;;;;;;15.10;7.80;;;8.60;99.90;;;;;;4972027;28;20061;-82
2022/05/05 02:20:05;;;;;;;12.90;7.03;;;8.60;99.90;;;;;;4974004;28;20047;-82
2022/05/05 02:22:31;;;;;;;15.85;8.27;;;8.60;99.90;;;;;;4958008;28;20097;-80
2022/05/05 02:24:57;;;;;;;16.00;8.25;;;8.60;99.90;;;;;;4976806;28;20078;-81
2022/05/05 02:27:23;;;;;;;16.60;8.70;;;8.60;99.90;;;;;;4974191;28;20129;-81
2022/05/05 02:29:50;;;;;;;15.05;7.70;;;8.60;99.90;;;;;;4973075;28;20090;-81
2022/05/05 02:32:17;;;;;;;19.30;8.80;;;8.60;99.90;;;;;;4973454;28;20110;-81
2022/05/05 02:34:44;;;;;;;16.48;8.55;;;8.60;99.90;;;;;;4973581;28;20047;-82
2022/05/05 02:39:54;;;;;;;15.57;6.82;;;8.70;99.90;;;;;;4974394;28;20487;-81
2022/05/05 02:42:20;;;;;;;13.77;7.70;;;8.70;99.90;;;;;;4974535;28;20125;-81
2022/05/05 02:44:46;;;;;;;18.63;7.20;;;8.70;99.90;;;;;;4976789;28;20047;-80
2022/05/05 02:47:12;;;;;;;17.48;7.25;;;8.70;99.90;;;;;;4976920;28;20146;-81
2022/05/05 02:49:38;;;;;;;16.98;7.75;;;8.70;99.90;;;;;;4973977;28;20059;-80
2022/05/05 02:52:08;;;;;;;18.80;7.70;;;8.70;99.90;;;;;;4975154;28;20042;-80
2022/05/05 02:54:47;;;;;;;17.17;7.43;;;8.70;99.90;;;;;;4973733;28;20069;-80
2022/05/05 02:57:15;;;;;;;16.05;7.43;;;8.70;99.90;;;;;;4973656;28;20051;-79
2022/05/05 02:59:42;;;;;;;13.60;6.63;;;8.70;99.90;;;;;;4973526;28;20053;-80
2022/05/05 03:02:08;;;;;;;17.35;8.18;;;8.70;99.90;;;;;;4974959;28;20502;-80
2022/05/05 03:04:34;;;;;;;12.20;6.28;;;8.70;99.90;;;;;;4975343;28;20054;-82
2022/05/05 03:07:02;;;;;;;15.40;6.63;;;8.70;99.90;;;;;;4982294;28;20208;-82
2022/05/05 03:09:28;;;;;;;14.25;6.53;;;8.70;99.90;;;;;;4974200;28;20051;-81
2022/05/05 03:11:54;;;;;;;15.98;7.35;;;8.70;99.90;;;;;;4973832;28;20410;-82
2022/05/05 03:14:19;;;;;;;15.35;7.00;;;8.70;99.90;;;;;;4973196;28;20047;-83
2022/05/05 03:16:45;;;;;;;14.80;6.90;;;8.70;99.90;;;;;;4974183;28;20054;-81
2022/05/05 03:19:11;;;;;;;16.27;6.93;;;8.70;99.90;;;;;;4974148;28;20047;-81
2022/05/05 03:21:37;;;;;;;12.73;7.40;;;8.70;99.90;;;;;;4973594;28;20064;-81
2022/05/05 03:24:04;;;;;;;15.95;7.55;;;8.70;99.90;;;;;;4972744;28;20047;-81
2022/05/05 03:26:30;;;;;;;13.15;6.57;;;8.70;99.90;;;;;;4973817;28;20483;-81
2022/05/05 03:28:56;;;;;;;16.48;6.35;;;8.70;99.90;;;;;;4975544;28;20134;-81
2022/05/05 03:31:23;;;;;;;11.82;6.25;;;8.70;99.90;;;;;;4975375;28;20124;-81
2022/05/05 03:33:49;;;;;;;17.35;6.85;;;8.70;99.90;;;;;;4973860;28;20046;-80
2022/05/05 03:36:15;;;;;;;11.38;6.10;;;8.60;99.90;;;;;;4973806;28;20054;-81
2022/05/05 03:38:41;;;;;;;18.50;6.80;;;8.60;99.90;;;;;;4972254;28;20054;-81
2022/05/05 03:41:07;;;;;;;12.55;6.00;;;8.60;99.90;;;;;;4955975;28;20556;-80
2022/05/05 03:43:33;;;;;;;13.43;6.07;;;8.60;99.90;;;;;;4972229;28;20045;-81
2022/05/05 03:45:59;;;;;;;16.75;6.35;;;8.60;99.90;;;;;;4972379;28;20134;-81
2022/05/05 03:48:25;;;;;;;12.88;6.10;;;8.50;99.90;;;;;;4973862;28;20130;-79
2022/05/05 03:50:52;;;;;;;15.88;6.93;;;8.50;99.90;;;;;;4962560;28;20043;-81
2022/05/05 03:53:18;;;;;;;16.10;6.82;;;8.40;99.90;;;;;;4973794;28;20062;-81
2022/05/05 03:55:45;;;;;;;13.77;6.88;;;8.40;99.90;;;;;;4972346;28;20051;-82
2022/05/05 03:58:11;;;;;;;14.18;5.63;;;8.40;99.90;;;;;;4971684;28;20058;-81
2022/05/05 04:00:37;;;;;;;11.75;6.60;;;8.40;99.90;;;;;;4955807;28;20499;-81
2022/05/05 04:05:48;;;;;;;12.80;6.10;;;8.40;99.90;;;;;;4973134;28;20431;-81
2022/05/05 04:08:14;;;;;;;15.27;6.88;;;8.30;99.90;;;;;;4973724;28;20054;-82
2022/05/05 04:10:40;;;;;;;14.32;6.32;;;8.30;99.90;;;;;;4976362;28;20054;-78
2022/05/05 04:13:06;;;;;;;16.95;7.20;;;8.30;99.90;;;;;;4975587;28;20057;-80
2022/05/05 04:15:33;;;;;;;17.77;7.35;;;8.30;99.90;;;;;;4972157;28;20051;-81
2022/05/05 04:18:02;;;;;;;13.13;7.03;;;8.30;99.90;;;;;;4971884;28;20134;-80
2022/05/05 04:20:28;;;;;;;15.98;7.13;;;8.20;99.90;;;;;;4955582;28;20085;-80
2022/05/05 04:22:55;;;;;;;16.02;6.75;;;8.20;99.90;;;;;;4972085;28;20050;-82
2022/05/05 04:25:21;;;;;;;11.90;6.80;;;8.20;99.90;;;;;;4972960;28;20051;-80
2022/05/05 04:27:49;;;;;;;12.68;7.38;;;8.20;99.90;;;;;;4972658;28;20490;-80
2022/05/05 04:30:16;;;;;;;23.60;8.52;;;8.20;99.90;;;;;;4973878;28;20150;-81
2022/05/05 04:32:43;;;;;;;14.38;7.68;;;8.20;99.90;;;;;;4971379;28;20054;-80
2022/05/05 04:35:10;;;;;;;15.52;8.27;;;8.20;99.90;;;;;;4971223;28;20514;-82
2022/05/05 04:37:36;;;;;;;15.75;6.75;;;8.30;99.90;;;;;;4971258;28;20136;-81
2022/05/05 04:40:02;;;;;;;14.38;7.07;;;8.30;99.90;;;;;;4955111;28;20093;-81
2022/05/05 04:42:28;;;;;;;23.45;8.48;;;8.30;99.90;;;;;;4971044;28;20569;-82
2022/05/05 04:44:54;;;;;;;12.95;6.13;;;8.30;99.90;;;;;;4972764;28;20047;-81
2022/05/05 04:47:20;;;;;;;14.85;6.28;;;8.40;99.90;;;;;;4973045;28;20147;-81
2022/05/05 04:49:45;;;;;;;16.05;6.70;;;8.40;99.90;;;;;;4975871;28;20156;-80
2022/05/05 04:52:11;;;;;;;13.55;6.88;;;8.40;99.90;;;;;;4972713;28;20414;-82
2022/05/05 04:54:37;;;;;;;13.25;7.30;;;8.50;99.90;;;;;;4970885;28;20055;-81
2022/05/05 04:57:03;;;;;;;14.70;6.95;;;8.50;99.90;;;;;;4955225;28;20129;-82
2022/05/05 04:59:29;;;;;;;14.05;6.78;;;8.60;99.90;;;;;;4972080;28;20569;-80
2022/05/05 05:01:55;;;;;;;11.98;6.57;;;8.60;99.90;;;;;;4970844;28;20162;-82
2022/05/05 05:04:21;;;;;;;15.00;6.07;;;8.70;99.90;;;;;;4971091;28;20518;-81
2022/05/05 05:06:47;;;;;;;14.27;7.50;;;8.70;99.90;;;;;;4972179;28;20066;-80
2022/05/05 05:09:12;;;;;;;14.25;7.05;;;8.80;99.90;;;;;;4971032;28;20049;-81
2022/05/05 05:11:38;;;;;;;19.60;7.40;;;8.80;99.90;;;;;;4957318;28;20058;-79
2022/05/05 05:14:04;;;;;;;17.95;7.30;;;8.80;99.90;;;;;;4956254;28;20178;-82
2022/05/05 05:16:30;;;;;;;20.70;7.30;;;8.90;99.90;;;;;;4972976;28;20050;-82
2022/05/05 05:18:56;;;;;;;13.27;7.13;;;8.90;99.90;;;;;;4970896;28;20051;-80
2022/05/05 05:21:22;;;;;;;18.13;7.20;;;9.00;99.90;;;;;;4972045;28;20059;-80
2022/05/05 05:23:48;;;;;;;14.35;6.82;;;9.00;99.90;;;;;;4971840;28;20050;-81
2022/05/05 05:26:14;;;;;;;14.23;6.68;;;9.00;99.90;;;;;;4971648;28;20054;-82
2022/05/05 05:28:40;;;;;;;16.15;6.75;;;9.10;99.90;;;;;;4972515;28;20058;-79
2022/05/05 05:31:06;;;;;;;14.48;6.85;;;9.10;99.90;;;;;;4974569;28;20068;-82
2022/05/05 05:33:32;;;;;;;12.75;6.25;;;9.20;99.90;;;;;;4954430;28;20055;-80
2022/05/05 05:35:58;;;;;;;14.20;6.80;;;9.20;99.90;;;;;;4971466;28;20398;-80
2022/05/05 05:38:24;;;;;;;18.70;6.80;;;9.30;99.90;;;;;;4970738;28;20406;-81
2022/05/05 05:40:49;;;;;;;12.10;6.88;;;9.30;99.90;;;;;;4970501;28;20546;-80
2022/05/05 05:43:16;;;;;;;15.15;8.23;;;9.40;99.90;;;;;;4971845;28;20499;-82
2022/05/05 05:45:42;;;;;;;14.40;7.22;;;9.40;99.90;;;;;;4972667;28;20086;-81
2022/05/05 05:48:08;;;;;;;15.15;7.20;;;9.50;99.90;;;;;;4971546;28;20086;-80
2022/05/05 05:50:34;;;;;;;17.13;6.90;;;9.60;99.90;;;;;;4971512;28;20055;-80
2022/05/05 05:53:00;;;;;;;16.77;7.22;;;9.60;99.90;;;;;;4971766;28;20051;-80
2022/05/05 05:55:26;;;;;;;12.93;6.82;;;9.70;99.90;;;;;;4977552;28;20542;-81
2022/05/05 05:57:52;;;;;;;18.65;6.75;;;9.70;99.90;;;;;;4961465;28;20454;-81
2022/05/05 06:00:18;;;;;;;13.77;5.57;;;9.80;99.90;;;;;;4976065;28;20087;-82
2022/05/05 06:05:30;;;;;;;13.15;6.20;;;9.90;99.90;;;;;;4975974;28;20058;-82
2022/05/05 06:08:03;;;;;;;13.63;6.28;;;10.00;99.90;;;;;;4974105;28;20142;-83
2022/05/05 06:10:31;;;;;;;13.43;6.45;;;10.10;99.90;;;;;;4974357;28;20142;-82
2022/05/05 06:12:57;;;;;;;9.65;5.53;;;10.10;99.90;;;;;;4973810;28;20058;-83
2022/05/05 06:15:23;;;;;;;15.40;6.80;;;10.20;99.90;;;;;;4976272;28;20047;-81
2022/05/05 06:17:50;;;;;;;11.85;5.60;;;10.30;99.90;;;;;;4974035;28;20421;-82
2022/05/05 06:20:16;;;;;;;15.88;6.53;;;10.30;99.90;;;;;;4975549;28;20178;-81
2022/05/05 06:22:42;;;;;;;14.68;6.07;;;10.40;99.90;;;;;;4973998;28;20063;-82
2022/05/05 06:25:11;;;;;;;18.52;8.32;;;10.50;99.90;;;;;;4975945;28;20576;-82
2022/05/05 06:27:38;;;;;;;13.27;5.90;;;10.50;99.90;;;;;;4976830;28;20118;-81
2022/05/05 06:30:05;;;;;;;15.77;6.65;;;10.60;99.90;;;;;;4978388;28;20047;-83
2022/05/05 06:32:31;;;;;;;12.52;6.32;;;10.70;99.90;;;;;;4976406;28;20058;-83
2022/05/05 06:34:57;;;;;;;16.48;6.50;;;10.70;99.90;;;;;;4974677;28;20162;-82
2022/05/05 06:37:24;;;;;;;12.98;6.40;;;10.80;99.90;;;;;;4974683;28;20051;-81
2022/05/05 06:39:50;;;;;;;12.05;6.00;;;10.90;99.90;;;;;;4974781;28;20137;-81
2022/05/05 06:42:17;;;;;;;16.08;6.30;;;10.90;99.90;;;;;;4975223;28;20050;-82
2022/05/05 06:44:43;;;;;;;12.50;7.80;;;11.00;99.90;;;;;;4974888;28;20051;-83
2022/05/05 06:47:10;;;;;;;14.43;5.70;;;11.10;99.90;;;;;;4973740;28;20050;-82
2022/05/05 06:49:35;;;;;;;12.32;5.55;;;11.20;99.90;;;;;;4973170;28;20054;-83
2022/05/05 06:52:01;;;;;;;15.77;6.68;;;11.30;99.90;;;;;;4973654;28;20569;-81
2022/05/05 06:54:27;;;;;;;18.65;6.60;;;11.50;99.90;;;;;;4973716;28;20403;-83
2022/05/05 06:56:55;;;;;;;10.27;5.78;;;11.50;99.90;;;;;;4975033;28;20054;-82
2022/05/05 06:59:21;;;;;;;15.90;6.85;;;11.70;99.90;;;;;;4974853;28;20454;-83
2022/05/05 07:01:53;;;;;;;16.15;6.63;;;11.70;99.90;;;;;;4975401;28;20109;-82
2022/05/05 07:07:05;;;;;;;14.48;7.20;;;11.80;99.90;;;;;;4975849;28;20054;-82
2022/05/05 07:12:16;;;;;;;17.23;7.15;;;11.90;99.90;;;;;;4975421;28;20058;-83
2022/05/05 07:14:45;;;;;;;12.38;6.22;;;12.10;99.90;;;;;;4976888;28;20055;-82
2022/05/05 07:17:12;;;;;;;13.55;6.75;;;12.20;99.90;;;;;;4978452;28;20062;-82
2022/05/05 07:19:39;;;;;;;18.98;7.70;;;12.20;99.90;;;;;;4972757;28;20142;-82
2022/05/05 07:22:07;;;;;;;18.65;6.53;;;12.20;99.90;;;;;;4972677;28;20085;-83
2022/05/05 07:24:33;;;;;;;15.45;6.15;;;12.40;99.90;;;;;;4973804;28;20078;-82
2022/05/05 07:26:59;;;;;;;15.23;6.85;;;12.40;99.90;;;;;;4972508;28;20094;-82
2022/05/05 07:29:26;;;;;;;20.45;5.63;;;12.50;99.90;;;;;;4973790;28;20134;-81
2022/05/05 07:31:51;;;;;;;15.55;6.65;;;12.50;99.90;;;;;;4972220;28;20090;-81
2022/05/05 07:34:18;;;;;;;15.05;6.72;;;12.60;99.90;;;;;;4974149;28;20086;-83
2022/05/05 07:36:45;;;;;;;13.82;6.05;;;12.60;99.90;;;;;;4974063;28;20046;-82
2022/05/05 07:39:11;;;;;;;14.98;6.85;;;12.80;99.90;;;;;;4973437;28;20058;-81
2022/05/05 07:41:37;;;;;;;15.63;7.13;;;13.00;99.90;;;;;;4973526;28;20058;-82
2022/05/05 07:44:05;;;;;;;14.50;6.25;;;13.10;99.90;;;;;;4973668;28;20058;-82
2022/05/05 07:46:35;;;;;;;17.08;7.78;;;13.20;99.90;;;;;;4973175;28;20113;-82
2022/05/05 07:49:02;;;;;;;16.30;7.13;;;13.30;99.90;;;;;;4972405;28;20429;-82
2022/05/05 07:51:29;;;;;;;17.80;7.70;;;13.40;99.90;;;;;;4973654;28;20515;-82
2022/05/05 07:56:39;;;;;;;;;;;13.70;99.90;;;;;;4976857;28;20134;-81
2022/05/05 07:59:06;;;;;;;17.45;6.05;;;13.80;99.90;;;;;;4972600;28;20033;-82
2022/05/05 08:01:33;;;;;;;19.50;7.28;;;14.00;99.90;;;;;;4973274;28;20132;-83
2022/05/05 08:03:59;;;;;;;14.18;6.63;;;14.10;99.90;;;;;;4973366;28;20046;-82
2022/05/05 08:06:25;;;;;;;16.10;6.43;;;14.10;99.90;;;;;;4973030;28;20411;-81
2022/05/05 08:08:51;;;;;;;12.80;5.57;;;14.10;99.80;;;;;;4957201;28;20067;-81
2022/05/05 08:11:17;;;;;;;12.52;5.70;;;14.10;99.30;;;;;;4974200;28;20059;-82
2022/05/05 08:13:43;;;;;;;18.00;5.88;;;14.10;99.00;;;;;;4957745;28;20057;-82
2022/05/05 08:16:10;;;;;;;15.65;5.43;;;14.30;99.20;;;;;;4955190;28;20062;-82
2022/05/05 08:18:38;;;;;;;11.57;5.55;;;14.40;98.90;;;;;;4972466;28;20058;-80
2022/05/05 08:21:10;;;;;;;14.18;6.20;;;14.50;99.00;;;;;;4972999;28;20482;-81
2022/05/05 08:23:37;;;;;;;12.93;5.10;;;14.60;98.10;;;;;;4971950;28;20141;-83
2022/05/05 08:28:48;;;;;;;16.05;6.40;;;15.00;96.90;;;;;;4974131;28;20129;-82
2022/05/05 08:31:15;;;;;;;13.57;5.38;;;15.30;96.80;;;;;;4971776;28;20414;-82
2022/05/05 08:33:41;;;;;;;11.57;4.65;;;15.50;96.00;;;;;;4973560;28;20577;-82
2022/05/05 08:36:07;;;;;;;9.50;4.93;;;15.60;96.00;;;;;;4973302;28;20050;-83
2022/05/05 08:38:33;;;;;;;9.30;4.80;;;15.60;95.30;;;;;;4972735;28;20082;-83
2022/05/05 08:40:59;;;;;;;13.23;5.00;;;15.80;94.70;;;;;;4972416;28;20174;-82
2022/05/05 08:43:26;;;;;;;8.43;4.47;;;15.90;94.40;;;;;;4955816;28;20134;-82
2022/05/05 08:45:55;;;;;;;10.10;5.38;;;16.00;94.10;;;;;;4972429;28;20410;-82
2022/05/05 08:48:22;;;;;;;7.63;3.83;;;16.00;93.40;;;;;;4975185;28;20388;-82
2022/05/05 08:50:55;;;;;;;10.02;4.57;;;16.10;93.40;;;;;;4977989;28;20061;-82
2022/05/05 08:53:26;;;;;;;10.65;3.92;;;16.20;93.10;;;;;;4972431;28;20478;-82
2022/05/05 08:55:55;;;;;;;8.35;4.18;;;16.30;92.60;;;;;;4971235;28;20046;-82
2022/05/05 08:58:22;;;;;;;8.27;3.97;;;16.30;93.30;;;;;;4972543;28;20061;-82
2022/05/05 09:00:52;;;;;;;10.52;3.63;;;16.50;93.00;;;;;;4970951;28;20059;-82
2022/05/05 09:03:19;;;;;;;10.13;3.78;;;16.60;92.10;;;;;;4970883;28;20046;-81
2022/05/05 09:05:45;;;;;;;9.30;3.42;;;16.50;92.00;;;;;;4971407;28;20055;-82
2022/05/05 09:08:31;;;;;;;12.13;4.50;;;16.60;92.00;;;;;;4971946;28;20054;-82
2022/05/05 09:11:01;;;;;;;13.48;5.22;;;16.90;92.30;;;;;;4972450;28;20511;-83
2022/05/05 09:13:36;;;;;;;13.25;5.25;;;17.00;92.00;;;;;;4972384;28;20410;-82
2022/05/05 09:16:04;;;;;;;9.15;4.15;;;17.00;92.10;;;;;;4978201;28;20082;-83
2022/05/05 09:18:32;;;;;;;8.35;4.72;;;17.10;92.00;;;;;;4973893;28;20090;-82
2022/05/05 09:21:03;;;;;;;12.52;4.50;;;17.30;92.00;;;;;;4972504;28;20122;-84
2022/05/05 09:23:30;;;;;;;10.57;4.50;;;17.50;92.30;;;;;;4972267;28;20043;-83
2022/05/05 09:25:56;;;;;;;9.18;4.15;;;17.40;91.40;;;;;;4970840;28;20096;-83
2022/05/05 09:28:24;;;;;;;10.95;4.60;;;17.20;91.70;;;;;;4972450;28;20514;-83
2022/05/05 09:30:54;;;;;;;10.48;4.40;;;17.00;91.10;;;;;;4975964;28;20054;-83
2022/05/05 09:33:41;;;;;;;8.13;4.05;;;16.90;91.80;;;;;;4975840;28;20380;-83
2022/05/05 09:36:12;;;;;;;9.55;4.70;;;17.00;91.60;;;;;;4958841;28;20054;-83
2022/05/05 09:38:58;;;;;;;9.68;5.03;;;17.20;92.20;;;;;;4960322;28;20062;-84
2022/05/05 09:41:32;;;;;;;12.02;5.68;;;16.90;90.50;;;;;;4978104;28;20059;-84
2022/05/05 09:44:16;;;;;;;9.75;4.97;;;17.00;91.20;;;;;;4974574;28;20086;-83
2022/05/05 09:46:45;;;;;;;11.40;5.43;;;17.30;91.60;;;;;;4975880;28;20503;-83
2022/05/05 09:49:12;;;;;;;8.02;5.50;;;17.50;91.80;;;;;;4974426;28;20047;-83
2022/05/05 09:57:48;;;;;;;13.98;6.95;;;18.10;90.50;;;;;;4976729;28;20570;-83
2022/05/05 10:00:44;;;;;;;12.88;6.93;;;18.30;89.00;;;;;;4977694;28;20055;-83
2022/05/05 10:06:05;;;;;;;10.75;6.30;;;18.30;87.60;;;;;;4980527;28;20569;-83
2022/05/05 10:08:36;;;;;;;11.32;6.15;;;18.80;88.30;;;;;;4974482;28;20078;-85
2022/05/05 10:11:05;;;;;;;10.73;5.93;;;19.10;86.10;;;;;;4974045;28;20158;-85
2022/05/05 10:13:32;;;;;;;12.15;5.00;;;19.40;86.40;;;;;;4975452;28;20054;-84
2022/05/05 10:16:00;;;;;;;11.00;5.30;;;19.80;84.20;;;;;;4975237;28;20518;-85
2022/05/05 10:18:29;;;;;;;9.40;5.95;;;19.60;79.60;;;;;;4975193;28;20058;-85
2022/05/05 10:20:57;;;;;;;11.80;6.40;;;19.50;79.50;;;;;;4974945;28;20058;-83
2022/05/05 10:23:47;;;;;;;12.98;5.72;;;19.70;79.50;;;;;;4976313;28;20042;-83
2022/05/05 10:26:13;;;;;;;10.23;6.03;;;20.00;80.30;;;;;;4957857;28;20046;-84
2022/05/05 10:28:46;;;;;;;10.20;5.32;;;20.10;77.50;;;;;;4975072;28;20090;-84
2022/05/05 10:31:31;;;;;;;10.30;5.70;;;20.40;76.50;;;;;;4975790;28;20410;-83
2022/05/05 10:34:03;;;;;;;11.85;6.03;;;20.60;74.30;;;;;;4978944;28;20058;-83
2022/05/05 10:36:29;;;;;;;13.98;7.07;;;20.40;72.80;;;;;;4973981;28;20069;-83
2022/05/05 10:38:56;;;;;;;18.85;7.32;;;20.40;74.30;;;;;;4974598;28;20427;-83
2022/05/05 10:41:35;;;;;;;11.32;6.82;;;20.50;76.20;;;;;;4974107;28;20097;-84
2022/05/05 10:44:16;;;;;;;12.70;6.93;;;20.10;73.10;;;;;;4974584;28;20149;-84
2022/05/05 10:47:05;;;;;;;13.55;7.32;;;20.00;71.90;;;;;;4974282;28;20049;-83
2022/05/05 10:49:37;;;;;;;18.50;5.78;;;20.40;76.00;;;;;;4974163;28;20061;-82
2022/05/05 10:52:12;;;;;;;10.93;7.03;;;21.20;72.60;;;;;;4973071;28;20510;-86
2022/05/05 10:54:46;;;;;;;8.85;6.63;;;21.10;67.40;;;;;;4974325;28;20491;-85
2022/05/05 10:57:27;;;;;;;11.13;6.75;;;21.50;65.50;;;;;;4959892;28;20061;-86
2022/05/05 11:00:18;;;;;;;11.27;7.60;;;21.90;65.80;;;;;;4974969;28;20047;-85
2022/05/05 11:03:01;;;;;;;13.43;6.80;;;22.10;61.20;;;;;;4974471;28;20170;-84
2022/05/05 11:05:28;;;;;;;11.98;6.53;;;22.60;61.30;;;;;;4973370;28;20414;-85
2022/05/05 11:08:15;;;;;;;8.45;5.40;;;22.90;61.60;;;;;;4974157;28;20459;-84
2022/05/05 11:10:48;;;;;;;10.23;5.30;;;23.10;57.40;;;;;;4966395;28;20077;-85
2022/05/05 11:13:37;;;;;;;13.90;6.18;;;23.10;57.80;;;;;;4974121;28;20529;-83
2022/05/05 11:22:19;;;;;;;10.27;6.40;;;23.30;56.10;;;;;;4974092;28;20130;-84
2022/05/05 11:24:47;;;;;;;12.18;6.43;;;23.40;55.10;;;;;;4975210;28;20499;-83
2022/05/05 11:27:21;;;;;;;12.85;7.03;;;23.40;54.90;;;;;;4972411;28;20054;-86
2022/05/05 11:29:54;;;;;;;9.57;5.93;;;23.50;54.20;;;;;;4973621;28;20050;-82
2022/05/05 11:32:27;;;;;;;11.40;6.93;;;23.20;55.50;;;;;;4972808;28;20046;-83
2022/05/05 11:34:53;;;;;;;10.30;5.75;;;23.20;53.60;;;;;;4973723;28;20515;-86
2022/05/05 11:37:19;;;;;;;12.77;6.80;;;23.00;54.30;;;;;;4940540;28;20114;-83
2022/05/05 11:39:50;;;;;;;11.07;6.80;;;23.00;53.90;;;;;;4972305;28;20046;-83
2022/05/05 11:42:18;;;;;;;12.25;6.85;;;23.00;53.10;;;;;;4974044;28;20589;-85
2022/05/05 11:44:45;;;;;;;11.40;6.95;;;23.10;53.10;;;;;;4977259;28;20057;-83
2022/05/05 11:47:12;;;;;;;11.35;7.68;;;23.10;52.90;;;;;;4972164;28;20051;-84
2022/05/05 11:49:39;;;;;;;12.68;7.55;;;23.20;52.30;;;;;;4972231;28;20061;-84
2022/05/05 11:52:06;;;;;;;10.90;7.18;;;23.30;52.30;;;;;;4972025;28;20051;-84
2022/05/05 11:54:34;;;;;;;13.27;7.90;;;23.20;52.70;;;;;;4975215;28;20058;-85
2022/05/05 11:57:05;;;;;;;11.38;7.85;;;23.20;51.80;;;;;;4974383;28;20110;-84
2022/05/05 12:02:19;;;;;;;13.30;7.35;;;23.30;51.80;;;;;;4972899;28;20059;-85
2022/05/05 12:04:49;;;;;;;14.93;7.80;;;23.40;52.50;;;;;;4973279;28;20042;-83
2022/05/05 12:07:20;;;;;;;13.75;6.90;;;23.50;52.10;;;;;;4974389;28;20063;-84
2022/05/05 12:09:50;;;;;;;15.00;7.88;;;23.70;51.50;;;;;;4975366;28;20054;-85
2022/05/05 12:12:24;;;;;;;13.25;7.40;;;23.90;52.10;;;;;;4979112;28;20090;-86
2022/05/05 12:14:56;;;;;;;13.40;7.50;;;23.80;51.30;;;;;;4971659;28;20498;-87
2022/05/05 12:17:24;;;;;;;13.95;7.25;;;24.10;51.90;;;;;;4973122;28;20055;-86
2022/05/05 12:19:59;;;;;;;14.65;7.55;;;24.10;51.90;;;;;;4972996;28;20410;-85
2022/05/05 12:22:30;;;;;;;12.95;7.55;;;24.30;51.50;;;;;;4971776;28;20069;-87
2022/05/05 12:25:14;;;;;;;12.30;8.23;;;24.50;50.20;;;;;;4971640;28;20050;-86
2022/05/05 12:27:41;;;;;;;15.38;8.27;;;24.40;48.80;;;;;;4972456;28;20126;-86
2022/05/05 12:30:08;;;;;;;15.77;8.18;;;24.50;50.00;;;;;;4972740;28;20166;-87
2022/05/05 12:32:34;;;;;;;16.38;8.63;;;24.60;50.50;;;;;;4974002;28;20422;-86
2022/05/05 12:35:10;;;;;;;16.27;8.43;;;24.80;49.80;;;;;;4976619;28;20062;-87
2022/05/05 12:37:37;;;;;;;15.18;8.10;;;25.20;48.60;;;;;;4971159;28;20106;-84
2022/05/05 12:40:07;;;;;;;15.77;8.80;;;24.90;49.00;;;;;;4972623;28;20049;-84
2022/05/05 12:42:45;;;;;;;13.50;8.23;;;25.30;48.50;;;;;;4972635;28;20169;-84
2022/05/05 12:45:15;;;;;;;14.48;8.55;;;25.00;48.10;;;;;;4972881;28;20059;-86
2022/05/05 12:47:46;;;;;;;17.33;9.60;;;25.20;47.80;;;;;;4971341;28;20062;-85
2022/05/05 12:50:32;;;;;;;16.10;9.32;;;25.30;47.00;;;;;;4955603;28;20062;-84
2022/05/05 13:01:31;;;;;;;18.85;8.90;;;25.70;47.10;;;;;;4973160;28;20562;-85
2022/05/05 13:04:06;;;;;;;13.50;8.57;;;26.00;46.10;;;;;;4971050;28;20450;-84
2022/05/05 13:06:33;;;;;;;11.68;7.72;;;26.20;46.00;;;;;;4972691;28;20086;-87
2022/05/05 13:08:59;;;;;;;12.43;7.93;;;26.20;46.80;;;;;;4973750;28;20889;-83
2022/05/05 13:11:25;;;;;;;13.50;8.48;;;26.50;46.20;;;;;;4974485;28;20439;-83
2022/05/05 13:13:53;;;;;;;13.10;8.35;;;26.40;45.60;;;;;;4956872;28;20061;-84
2022/05/05 13:16:19;;;;;;;15.55;8.45;;;26.40;46.30;;;;;;4959135;28;20050;-86
2022/05/05 13:18:45;;;;;;;12.38;7.53;;;26.30;46.60;;;;;;4975229;28;20042;-87
2022/05/05 13:21:11;;;;;;;13.98;8.05;;;26.10;46.30;;;;;;4977453;28;20094;-85
2022/05/05 13:23:37;;;;;;;15.88;9.65;;;26.30;46.00;;;;;;4977939;28;20050;-85
2022/05/05 13:26:04;;;;;;;14.77;8.68;;;26.50;45.20;;;;;;4976060;28;20490;-83
2022/05/05 13:28:34;;;;;;;15.55;9.50;;;26.70;45.10;;;;;;4974335;28;20043;-83
2022/05/05 13:31:00;;;;;;;13.10;7.60;;;27.30;44.00;;;;;;4973243;28;20058;-84
2022/05/05 13:33:26;;;;;;;13.07;8.98;;;27.40;44.60;;;;;;4954292;28;20057;-84
2022/05/05 13:35:52;;;;;;;12.57;8.95;;;27.60;43.70;;;;;;4976170;28;20061;-85
2022/05/05 13:38:18;;;;;;;23.67;9.73;;;27.70;43.50;;;;;;4956871;28;20058;-85
2022/05/05 13:40:44;;;;;;;11.88;7.50;;;28.20;43.70;;;;;;4970589;28;20047;-84